Latest Weather Observations for Rolleston Airport

IDQ60801

Issued at 8:05 am EST Thursday 2 October 2014 (issued every 30 minutes, with the page automatically refreshed every 10 minutes)

About weather observations | Map of weather stations | Latest weather observations for QLD | Other Formats
Station Details ID: 035129 Name: ROLLESTON AIRPORT Lat: -24.46 Lon: 148.63 Height: 219.45 m
Data from the previous 72 hours. | See also: Recent months at Rolleston Airport
Date/Time
EST
Temp
°C
App
Temp
°C
Dew
Point
Rel
Hum
%
Delta-T
°C
Wind Press
QNH
hPa
Press
MSL
hPa
Rain
since 9 am
mm
Dir
 
Spd
km/h
Gust
km/h
Spd
kts
Gust
kts
02/08:00am 20.4 14.9 0.3 26 9.0 SSE 19 26 10 14 1020.3 1019.3 0.0
02/07:30am 19.8 14.9 1.7 30 8.3 S 17 24 9 13 1019.9 1018.9 0.0
02/07:00am 18.8 14.4 2.6 34 7.5 S 15 20 8 11 1019.5 1018.5 0.0
02/06:30am 17.4 14.2 3.3 39 6.6 S 9 15 5 8 1019.1 1018.1 0.0
02/06:00am 16.7 13.5 3.1 40 6.3 S 9 13 5 7 1018.7 1017.7 0.0
02/05:30am 17.6 14.4 3.1 38 6.8 S 9 11 5 6 1018.4 1017.4 0.0
02/05:00am 18.2 15.1 3.7 38 6.9 S 9 13 5 7 1017.9 1016.9 0.0
02/04:30am 18.8 15.8 4.2 38 7.0 S 9 15 5 8 1017.6 1016.6 0.0
02/04:00am 19.3 16.5 5.0 39 7.0 S 9 15 5 8 1017.1 1016.0 0.0
02/03:30am 19.6 16.8 5.3 39 7.1 S 9 15 5 8 1016.9 1015.8 0.0
02/03:00am 19.7 16.3 6.1 41 6.8 S 13 19 7 10 1016.7 1015.6 0.0
02/02:30am 19.5 17.2 7.6 46 6.2 S 9 17 5 9 1016.8 1015.7 0.0
02/02:00am 19.5 17.6 9.1 51 5.5 S 9 11 5 6 1016.9 1015.8 0.0
02/01:30am 18.8 16.7 9.8 56 4.8 SSE 11 13 6 7 1016.9 1015.8 0.0
02/01:00am 18.0 16.2 9.6 58 4.5 SSE 9 9 5 5 1017.0 1015.9 0.0
02/12:30am 19.8 18.4 9.4 51 5.6 S 7 11 4 6 1017.1 1016.0 0.0
02/12:00am 21.0 19.1 8.9 46 6.5 S 9 20 5 11 1017.0 1015.9 0.0
 
Date/Time
EST
Temp
°C
App
Temp
°C
Dew
Point
Rel
Hum
%
Delta-T
°C
Wind Press
QNH
hPa
Press
MSL
hPa
Rain
since 9 am
mm
Dir
 
Spd
km/h
Gust
km/h
Spd
kts
Gust
kts
01/11:30pm 21.9 18.7 8.4 42 7.2 E 15 19 8 10 1016.7 1015.6 0.0
01/11:00pm 21.9 19.2 9.1 44 6.9 ESE 13 17 7 9 1016.7 1015.6 0.0
01/10:30pm 21.4 21.3 9.3 46 6.5 CALM 0 2 0 1 1016.0 1015.0 0.0
01/10:00pm 21.4 21.3 9.6 47 6.4 CALM 0 0 0 0 1015.8 1014.8 0.0
01/09:30pm 22.2 22.1 9.4 44 6.9 CALM 0 0 0 0 1015.8 1014.8 0.0
01/09:00pm 23.6 23.4 9.2 40 7.8 CALM 0 0 0 0 1015.9 1014.9 0.0
01/08:30pm 23.0 22.9 9.4 42 7.4 CALM 0 4 0 2 1015.8 1014.8 0.0
01/08:00pm 24.0 22.6 9.6 40 7.9 N 7 7 4 4 1015.5 1014.5 0.0
01/07:30pm 24.9 23.5 9.6 38 8.5 N 7 9 4 5 1015.4 1014.4 0.0
01/07:00pm 25.1 23.9 9.4 37 8.7 N 6 7 3 4 1015.2 1014.2 0.0
01/06:30pm 27.2 25.9 10.0 34 9.7 NNE 7 11 4 6 1015.0 1014.0 0.0
01/06:00pm 28.5 26.9 8.7 29 11.0 NNE 7 9 4 5 1014.9 1013.9 0.0
01/05:30pm 29.7 27.6 8.2 26 11.9 N 9 11 5 6 1014.7 1013.7 0.0
01/05:00pm 31.3 29.1 7.7 23 13.1 N 9 13 5 7 1014.5 1013.5 0.0
01/04:30pm 31.5 29.3 7.9 23 13.1 N 9 17 5 9 1014.5 1013.5 0.0
01/04:00pm 31.5 29.1 8.5 24 12.9 NNE 11 19 6 10 1014.5 1013.5 0.0
01/03:30pm 31.6 29.8 8.0 23 13.1 N 7 13 4 7 1014.7 1013.7 0.0
01/03:00pm 31.6 30.7 9.2 25 12.7 ESE 4 11 2 6 1015.1 1014.1 0.0
01/02:30pm 30.9 29.1 8.0 24 12.7 N 7 15 4 8 1015.4 1014.4 0.0
01/02:00pm 31.3 29.0 8.9 25 12.6 NNE 11 20 6 11 1015.7 1014.7 0.0
01/01:30pm 30.2 28.6 8.6 26 12.1 NNW 7 13 4 7 1016.2 1015.2 0.0
01/01:00pm 29.2 27.5 8.3 27 11.5 N 7 15 4 8 1017.0 1015.9 0.0
01/12:30pm 28.9 27.1 9.6 30 10.9 NNW 9 15 5 8 1017.6 1016.6 0.0
01/12:00pm 27.8 26.7 10.5 34 9.8 NNW 7 17 4 9 1018.3 1017.3 0.0
01/11:30am 26.1 24.5 10.3 37 8.9 NW 9 17 5 9 1019.2 1018.2 0.0
01/11:00am 25.9 24.6 11.3 40 8.3 WNW 9 17 5 9 1019.8 1018.8 0.0
01/10:30am 24.6 22.6 11.5 44 7.5 NNW 13 20 7 11 1020.1 1019.1 0.0
01/10:00am 24.0 22.1 11.7 46 7.0 NNW 13 22 7 12 1020.3 1019.3 0.0
01/09:30am 23.2 21.0 12.2 50 6.3 NW 15 22 8 12 1020.5 1019.9 0.0
01/09:00am 22.1 19.5 12.1 53 5.7 NNW 17 22 9 12 1020.6 1020.0 0.0
01/08:30am 21.0 19.3 12.4 58 4.9 NW 13 19 7 10 1020.7 1020.1 0.0
01/08:00am 19.3 18.2 11.8 62 4.2 NNW 9 13 5 7 1020.7 1020.1 0.0
01/07:30am 17.7 16.8 11.5 67 3.4 NNW 7 9 4 5 1020.6 1020.0 0.0
01/07:00am 16.6 16.0 11.7 73 2.7 NNE 6 7 3 4 1020.2 1019.6 0.0
01/06:30am 14.9 15.1 11.9 82 1.6 NE 2 6 1 3 1019.9 1019.3 0.0
01/06:00am 13.1 12.6 10.6 85 1.3 ENE 4 6 2 3 1019.7 1019.1 0.0
01/05:30am 13.2 12.7 10.7 85 1.3 NE 4 6 2 3 1019.5 1018.9 0.0
01/05:00am 13.3 12.6 10.1 81 1.7 NNE 4 6 2 3 1019.2 1018.5 0.0
01/04:30am 14.6 15.0 11.2 80 1.8 CALM 0 0 0 0 1019.0 1018.3 0.0
01/04:00am 14.3 14.7 11.1 81 1.7 CALM 0 0 0 0 1018.7 1018.0 0.0
01/03:30am 13.5 13.6 10.3 81 1.7 CALM 0 0 0 0 1018.7 1018.0 0.0
01/03:00am 14.6 14.9 11.0 79 1.9 CALM 0 0 0 0 1018.5 1017.8 0.0
01/02:30am 15.0 15.2 10.6 75 2.3 CALM 0 0 0 0 1018.5 1017.8 0.0
01/02:00am 16.3 15.9 11.2 72 2.8 N 4 6 2 3 1018.7 1018.0 0.0
01/01:30am 16.7 15.8 11.4 71 2.9 NNW 7 9 4 5 1018.9 1018.2 0.0
01/01:00am 15.9 14.9 11.1 73 2.6 NNW 7 9 4 5 1019.0 1018.3 0.0
01/12:30am 16.2 15.3 10.5 69 3.1 NNW 6 7 3 4 1019.1 1018.4 0.0
01/12:00am 17.2 16.3 10.8 66 3.5 N 6 7 3 4 1019.0 1018.3 0.0
 
Date/Time
EST
Temp
°C
App
Temp
°C
Dew
Point
Rel
Hum
%
Delta-T
°C
Wind Press
QNH
hPa
Press
MSL
hPa
Rain
since 9 am
mm
Dir
 
Spd
km/h
Gust
km/h
Spd
kts
Gust
kts
30/11:30pm 15.7 14.3 9.6 67 3.2 NNW 7 9 4 5 1019.2 1018.5 0.0
30/11:00pm 18.3 18.5 10.4 60 4.3 CALM 0 0 0 0 1019.2 1018.5 0.0
30/10:30pm 18.4 18.5 10.3 59 4.4 CALM 0 2 0 1 1018.9 1018.2 0.0
30/10:00pm 20.0 19.8 10.4 54 5.2 N 2 2 1 1 1018.9 1018.2 0.0
30/09:30pm 20.8 19.7 10.0 50 5.9 NNE 6 6 3 3 1018.9 1018.2 0.0
30/09:00pm 21.3 20.3 10.2 49 6.1 NNE 6 7 3 4 1018.8 1018.1 0.0
30/08:30pm 22.6 20.7 9.0 42 7.3 NE 9 13 5 7 1018.6 1017.9 0.0
30/08:00pm 23.6 21.0 7.7 36 8.4 ENE 11 15 6 8 1018.3 1017.6 0.0
30/07:30pm 22.1 20.4 8.2 41 7.4 E 7 7 4 4 1017.8 1017.1 0.0
30/07:00pm 23.7 22.1 7.8 36 8.4 ENE 6 7 3 4 1017.5 1016.8 0.0
30/06:30pm 25.8 24.3 6.9 30 10.0 NE 4 4 2 2 1017.2 1016.5 0.0
30/06:00pm 27.0 25.5 6.9 28 10.7 NE 4 4 2 2 1016.8 1016.1 0.0
30/05:30pm 28.0 26.7 6.2 25 11.6 NNW 2 6 1 3 1016.7 1016.0 0.0
30/05:00pm 28.4 26.1 4.6 22 12.3 NNE 6 11 3 6 1016.4 1015.8 0.0
30/04:30pm 28.4 26.2 3.3 20 12.7 N 4 7 2 4 1016.3 1015.7 0.0
30/04:00pm 28.8 26.0 5.0 22 12.4 NNE 9 13 5 7 1016.4 1015.8 0.0
30/03:30pm 28.9 27.0 5.1 22 12.4 E 4 7 2 4 1016.5 1015.9 0.0
30/03:00pm 28.8 27.0 5.6 23 12.2 N 4 7 2 4 1016.7 1016.0 0.0
30/02:30pm 28.3 26.0 5.8 24 11.9 N 7 13 4 7 1017.0 1016.3 0.0
30/02:00pm 28.1 26.0 6.8 26 11.4 ENE 7 20 4 11 1017.6 1016.9 0.0
30/01:30pm 27.4 24.8 7.8 29 10.6 NNE 11 20 6 11 1018.0 1017.3 0.0
30/01:00pm 27.4 25.0 8.8 31 10.3 NNE 11 22 6 12 1018.6 1017.9 0.0
30/12:30pm 26.6 24.5 9.9 35 9.4 NE 11 19 6 10 1019.2 1018.5 0.0
30/12:00pm 26.4 24.2 9.3 34 9.5 NNE 11 26 6 14 1019.9 1019.3 0.0
30/11:30am 25.9 24.2 9.7 36 9.0 NNW 9 17 5 9 1020.5 1019.9 0.0
30/11:00am 24.8 23.9 11.4 43 7.6 N 7 15 4 8 1021.0 1020.4 0.0
30/10:30am 23.4 22.2 11.5 47 6.7 N 9 17 5 9 1021.3 1020.7 0.0
30/10:00am 22.8 21.1 11.2 48 6.5 N 11 17 6 9 1021.8 1021.1 0.0
30/09:30am 22.4 20.5 11.8 51 6.0 N 13 19 7 10 1022.2 1021.5 0.0
30/09:00am 21.6 20.2 12.2 55 5.3 N 11 19 6 10 1022.3 1021.6 0.0
30/08:30am 20.1 19.8 13.3 65 3.9 NNW 7 13 4 7 1022.2 1021.5 0.0
30/08:00am 19.0 19.0 14.1 73 2.8 NNW 7 11 4 6 1022.0 1021.3 0.0
30/07:30am 17.7 17.6 14.0 79 2.1 WNW 7 11 4 6 1021.8 1021.1 0.0
30/07:00am 15.6 16.6 13.1 85 1.4 CALM 0 0 0 0 1021.6 1020.9 0.0
30/06:30am 13.7 14.4 12.1 90 0.9 CALM 0 0 0 0 1021.2 1020.6 0.0
30/06:00am 12.3 12.7 11.2 93 0.6 CALM 0 0 0 0 1020.8 1020.2 0.0
30/05:30am 12.0 12.2 10.4 90 0.8 CALM 0 0 0 0 1020.4 1019.8 0.0
30/05:00am 13.0 13.4 11.4 90 0.9 CALM 0 0 0 0 1020.0 1019.4 0.0
30/04:30am 13.3 13.7 11.4 88 1.0 CALM 0 0 0 0 1019.6 1019.0 0.0
30/04:00am 13.9 14.6 12.3 90 0.9 CALM 0 4 0 2 1019.4 1018.8 0.0
30/03:30am 14.2 14.8 11.9 86 1.3 CALM 0 0 0 0 1019.2 1018.5 0.0
30/03:00am 14.6 14.7 12.8 89 1.0 E 4 9 2 5 1019.2 1018.5 0.0
30/02:30am 14.6 15.3 12.3 86 1.3 CALM 0 0 0 0 1019.2 1018.5 0.0
30/02:00am 16.7 17.8 13.4 81 1.9 CALM 0 2 0 1 1019.3 1018.7 0.0
30/01:30am 16.4 16.9 12.8 79 2.0 NNW 2 4 1 2 1019.1 1018.4 0.0
30/01:00am 17.0 16.8 12.9 77 2.3 N 6 7 3 4 1019.2 1018.5 0.0
30/12:30am 16.9 16.5 12.4 75 2.5 N 6 7 3 4 1019.3 1018.7 0.0
30/12:00am 17.7 17.2 12.2 70 3.1 N 6 9 3 5 1019.3 1018.7 0.0
 
Date/Time
EST
Temp
°C
App
Temp
°C
Dew
Point
Rel
Hum
%
Delta-T
°C
Wind Press
QNH
hPa
Press
MSL
hPa
Rain
since 9 am
mm
Dir
 
Spd
km/h
Gust
km/h
Spd
kts
Gust
kts
29/11:30pm 18.1 17.3 11.2 64 3.8 N 6 11 3 6 1019.4 1018.8 0.0
29/11:00pm 18.4 17.6 11.0 62 4.0 N 6 6 3 3 1019.3 1018.7 0.0
29/10:30pm 19.2 18.8 11.0 59 4.5 N 4 6 2 3 1019.1 1018.4 0.0
29/10:00pm 19.3 18.3 11.1 59 4.5 N 7 7 4 4 1019.1 1018.4 0.0
29/09:30pm 19.8 19.1 11.3 58 4.7 N 6 9 3 5 1019.1 1018.4 0.0
29/09:00pm 21.7 20.3 10.8 50 6.0 NE 9 11 5 6 1018.9 1018.2 0.0
29/08:30pm 22.2 20.8 11.0 49 6.3 NE 9 11 5 6 1018.7 1018.0 0.0
29/08:00pm 23.1 21.6 10.5 45 7.0 NE 9 11 5 6 1018.5 1017.8 0.0
29/07:30pm 23.9 21.9 10.2 42 7.6 ENE 11 17 6 9 1018.1 1017.4 0.0
29/07:00pm 25.1 24.2 10.6 40 8.1 NE 6 7 3 4 1017.9 1017.2 0.0
29/06:30pm 25.4 25.4 9.7 37 8.7 CALM 0 4 0 2 1017.5 1016.8 0.0
29/06:00pm 26.5 25.9 8.9 33 9.7 NNW 2 4 1 2 1017.2 1016.5 0.0
29/05:30pm 27.7 26.5 9.5 32 10.2 NW 6 11 3 6 1016.8 1016.1 0.0
29/05:00pm 27.6 26.7 9.4 32 10.2 NE 4 9 2 5 1016.5 1015.9 0.0
29/04:30pm 27.9 26.6 9.2 31 10.4 E 6 7 3 4 1016.3 1015.7 0.0
29/04:00pm 28.0 26.7 9.8 32 10.2 NNW 7 19 4 10 1016.3 1015.7 0.0
29/03:30pm 27.5 26.6 9.3 32 10.1 E 4 13 2 7 1016.5 1015.9 0.0
29/03:00pm 27.7 26.4 10.0 33 10.0 NE 7 13 4 7 1016.7 1016.0 0.0
29/02:30pm 27.1 26.0 9.9 34 9.7 N 6 11 3 6 1017.1 1016.4 0.0
29/02:00pm 26.8 25.3 10.5 36 9.2 NNE 9 15 5 8 1017.4 1016.7 0.0
29/01:30pm 26.5 25.0 11.8 40 8.5 ENE 11 15 6 8 1017.9 1017.2 0.0
29/01:00pm 25.5 24.3 11.7 42 7.9 NNE 9 17 5 9 1018.5 1017.8 0.0
29/12:30pm 25.3 24.0 12.5 45 7.4 NNW 11 17 6 9 1019.1 1018.4 0.0
29/12:00pm 24.7 24.9 14.2 52 6.3 W 6 9 3 5 1019.7 1019.1 0.0
29/11:30am 24.0 23.7 12.6 49 6.6 NNE 6 11 3 6 1020.2 1019.6 0.0
29/11:00am 24.0 23.6 12.9 50 6.4 N 7 13 4 7 1020.5 1019.9 0.0
29/10:30am 22.2 22.2 13.5 57 5.1 WNW 6 9 3 5 1020.9 1020.3 0.0
29/10:00am 21.4 21.0 13.1 59 4.8 NW 7 13 4 7 1021.2 1020.6 0.0
29/09:30am 20.9 21.1 13.1 61 4.5 NE 4 6 2 3 1021.5 1020.8 0.0
29/09:00am 21.0 21.7 13.4 62 4.4 NNE 2 9 1 5 1021.5 1020.8 0.0
29/08:30am 20.0 20.5 13.9 68 3.5 NNE 4 7 2 4 1021.3 1020.7 0.0

Other Formats:

Comma delimited format used in spreadsheet applications
http://www.bom.gov.au/fwo/IDQ60801/IDQ60801.94396.axf

JavaScript Object Notation format (JSON) in row-major order
http://www.bom.gov.au/fwo/IDQ60801/IDQ60801.94396.json